Time;durP1;ratioP1;P1;durP2;ratioP2;P2;SDS_P1;SDS_P2;PMS_P1;PMS_P2;Temp;Humidity;BMP_temperature;BMP_pressure;BME280_temperature;BME280_humidity;BME280_pressure;Samples;Min_cycle;Max_cycle;Signal;HPM_P1;HPM_P2
2021/06/03 00:02:06;;;;;;;6.90;4.78;;;14.50;71.00;;;;;;5015899;28;20037;-70
2021/06/03 00:04:32;;;;;;;7.00;4.25;;;14.40;71.30;;;;;;4999902;28;20113;-69
2021/06/03 00:06:57;;;;;;;9.75;4.97;;;14.40;71.40;;;;;;5015028;28;20104;-69
2021/06/03 00:09:23;;;;;;;8.30;4.78;;;14.40;71.00;;;;;;5012428;28;20108;-69
2021/06/03 00:11:49;;;;;;;8.70;4.80;;;14.50;71.00;;;;;;5015831;28;20018;-67
2021/06/03 00:14:15;;;;;;;9.57;4.97;;;14.50;71.00;;;;;;5017671;28;20464;-68
2021/06/03 00:16:41;;;;;;;6.75;4.18;;;14.50;71.20;;;;;;5011557;28;20033;-68
2021/06/03 00:19:10;;;;;;;5.85;4.65;;;14.40;71.10;;;;;;5015523;28;20025;-68
2021/06/03 00:21:37;;;;;;;6.68;4.53;;;14.50;71.10;;;;;;5015658;28;20032;-68
2021/06/03 00:24:03;;;;;;;7.05;4.97;;;14.50;70.90;;;;;;5012274;28;20026;-68
2021/06/03 00:26:29;;;;;;;6.22;4.43;;;14.40;70.90;;;;;;5007983;28;20397;-71
2021/06/03 00:28:55;;;;;;;8.13;4.53;;;14.40;70.90;;;;;;5011982;28;20030;-68
2021/06/03 00:31:20;;;;;;;7.10;5.15;;;14.30;70.90;;;;;;5015196;28;20018;-69
2021/06/03 00:33:46;;;;;;;7.47;5.20;;;14.30;71.20;;;;;;5012045;28;20029;-69
2021/06/03 00:36:13;;;;;;;7.25;4.97;;;14.20;71.20;;;;;;5013863;28;20109;-68
2021/06/03 00:38:40;;;;;;;5.32;4.70;;;14.20;71.30;;;;;;5015287;28;20456;-68
2021/06/03 00:41:10;;;;;;;8.55;5.05;;;14.10;71.60;;;;;;5015106;28;20057;-68
2021/06/03 00:43:37;;;;;;;7.85;4.70;;;14.10;71.70;;;;;;5014607;28;20025;-68
2021/06/03 00:46:04;;;;;;;6.65;4.53;;;14.10;71.80;;;;;;5011208;28;20034;-69
2021/06/03 00:48:31;;;;;;;10.25;5.43;;;14.20;71.60;;;;;;5003051;28;20029;-70
2021/06/03 00:51:01;;;;;;;6.93;4.80;;;14.20;71.50;;;;;;5011170;28;20018;-70
2021/06/03 00:53:28;;;;;;;8.73;5.10;;;14.20;71.20;;;;;;5006926;28;20026;-70
2021/06/03 00:55:56;;;;;;;5.50;4.50;;;14.10;71.40;;;;;;5032706;28;20044;-69
2021/06/03 00:58:23;;;;;;;6.75;4.80;;;14.20;71.20;;;;;;5011316;28;20087;-70
2021/06/03 01:00:51;;;;;;;5.50;4.40;;;14.10;71.20;;;;;;5014746;28;20491;-69
2021/06/03 01:03:17;;;;;;;6.43;4.53;;;14.10;71.10;;;;;;5011303;28;20059;-69
2021/06/03 01:05:50;;;;;;;6.38;4.95;;;14.10;71.20;;;;;;5025655;28;20025;-69
2021/06/03 01:08:20;;;;;;;5.63;4.70;;;14.10;70.70;;;;;;5013761;28;20029;-68
2021/06/03 01:11:01;;;;;;;6.05;4.63;;;14.00;70.70;;;;;;5011426;28;20052;-69
2021/06/03 01:13:38;;;;;;;6.72;4.35;;;14.00;70.80;;;;;;5014375;28;20483;-69
2021/06/03 01:16:05;;;;;;;11.55;4.82;;;13.90;70.90;;;;;;5010881;28;20038;-67
2021/06/03 01:18:33;;;;;;;4.80;4.13;;;14.00;70.70;;;;;;5007076;28;20028;-69
2021/06/03 01:21:02;;;;;;;8.27;4.80;;;14.00;70.80;;;;;;5014225;28;20036;-68
2021/06/03 01:23:44;;;;;;;6.03;4.95;;;13.90;70.70;;;;;;5011032;28;20058;-67
2021/06/03 01:26:11;;;;;;;6.47;4.88;;;13.90;70.80;;;;;;5006778;28;20025;-70
2021/06/03 01:28:37;;;;;;;7.20;4.97;;;13.80;70.80;;;;;;5010887;28;20467;-69
2021/06/03 01:31:03;;;;;;;5.88;4.90;;;13.80;70.90;;;;;;5014245;28;20028;-69
2021/06/03 01:33:32;;;;;;;6.22;5.43;;;13.80;71.10;;;;;;5010944;28;20030;-69
2021/06/03 01:36:03;;;;;;;6.55;4.95;;;13.80;71.20;;;;;;5014033;28;20112;-70
2021/06/03 01:38:31;;;;;;;7.82;4.43;;;13.80;71.10;;;;;;5013843;28;20391;-69
2021/06/03 01:40:59;;;;;;;9.10;4.95;;;13.80;70.90;;;;;;5014070;28;20060;-69
2021/06/03 01:43:27;;;;;;;8.25;4.88;;;13.70;70.90;;;;;;5013815;28;20036;-68
2021/06/03 01:45:55;;;;;;;5.97;4.60;;;13.80;70.80;;;;;;5011101;28;20026;-68
2021/06/03 01:48:21;;;;;;;6.50;5.22;;;13.70;70.80;;;;;;5012871;28;20026;-69
2021/06/03 01:50:52;;;;;;;7.45;5.00;;;13.60;71.20;;;;;;5011559;28;20079;-69
2021/06/03 01:53:21;;;;;;;8.73;5.57;;;13.60;71.20;;;;;;5004106;28;20037;-69
2021/06/03 01:55:46;;;;;;;11.90;5.20;;;13.50;71.40;;;;;;5013114;28;20034;-69
2021/06/03 01:58:12;;;;;;;12.35;5.53;;;13.50;71.30;;;;;;5011972;28;20511;-69
2021/06/03 02:00:41;;;;;;;7.53;4.53;;;13.50;71.20;;;;;;5013726;28;20619;-68
2021/06/03 02:03:07;;;;;;;9.15;4.95;;;13.50;71.40;;;;;;5010435;28;20037;-67
2021/06/03 02:05:33;;;;;;;9.70;5.35;;;13.60;71.20;;;;;;5023477;28;20029;-68
2021/06/03 02:08:00;;;;;;;5.70;4.60;;;13.50;70.90;;;;;;5009464;28;20037;-69
2021/06/03 02:10:26;;;;;;;7.30;4.95;;;13.50;70.80;;;;;;5011227;28;20171;-68
2021/06/03 02:13:28;;;;;;;6.00;4.78;;;13.50;71.10;;;;;;5013893;28;20025;-69
2021/06/03 02:16:02;;;;;;;9.55;4.80;;;13.40;71.20;;;;;;4934716;29;20354;-68
2021/06/03 02:18:40;;;;;;;9.00;5.07;;;13.40;71.30;;;;;;5001832;28;20038;-70
2021/06/03 02:21:06;;;;;;;8.73;4.95;;;13.50;70.90;;;;;;5031419;28;20029;-69
2021/06/03 02:23:33;;;;;;;9.80;5.60;;;13.50;70.90;;;;;;5010311;28;20030;-69
2021/06/03 02:26:01;;;;;;;7.63;4.68;;;13.40;70.70;;;;;;5008125;28;20558;-69
2021/06/03 02:28:29;;;;;;;8.70;5.10;;;13.50;70.60;;;;;;5010158;28;20053;-69
2021/06/03 02:30:57;;;;;;;7.18;4.88;;;13.40;70.30;;;;;;5014064;28;20536;-69
2021/06/03 02:33:23;;;;;;;10.57;4.55;;;13.50;70.10;;;;;;5010032;28;20026;-69
2021/06/03 02:35:50;;;;;;;7.93;4.70;;;13.50;69.90;;;;;;5013246;28;20018;-67
2021/06/03 02:38:30;;;;;;;9.27;5.20;;;13.50;69.50;;;;;;5010409;28;20025;-66
2021/06/03 02:41:02;;;;;;;5.80;4.60;;;13.70;69.20;;;;;;4998467;28;20029;-69
2021/06/03 02:43:28;;;;;;;5.25;4.75;;;13.80;68.50;;;;;;5030683;28;20523;-68
2021/06/03 02:45:54;;;;;;;6.55;4.80;;;13.70;68.10;;;;;;5009955;28;20121;-67
2021/06/03 02:48:23;;;;;;;7.90;4.43;;;13.70;68.40;;;;;;5010473;28;20029;-68
2021/06/03 02:50:48;;;;;;;6.30;4.93;;;13.70;68.20;;;;;;5010600;28;20521;-69
2021/06/03 02:53:14;;;;;;;8.32;4.75;;;13.70;68.10;;;;;;5002710;28;20109;-68
2021/06/03 02:55:40;;;;;;;11.35;5.40;;;13.70;67.90;;;;;;5012862;28;20052;-68
2021/06/03 02:58:06;;;;;;;6.95;4.88;;;13.70;67.90;;;;;;5035043;23;20058;-66
2021/06/03 03:00:34;;;;;;;7.13;5.03;;;13.70;68.10;;;;;;5015792;28;20544;-67
2021/06/03 03:03:02;;;;;;;6.60;4.82;;;13.70;68.20;;;;;;5014007;28;20077;-67
2021/06/03 03:05:28;;;;;;;8.27;4.65;;;13.70;68.10;;;;;;5013986;28;20061;-67
2021/06/03 03:07:54;;;;;;;7.25;4.78;;;13.70;68.10;;;;;;5015149;28;20093;-67
2021/06/03 03:10:25;;;;;;;6.75;4.63;;;13.80;67.80;;;;;;5017661;28;20022;-67
2021/06/03 03:12:51;;;;;;;372.67;276.00;;;13.90;67.60;;;;;;5019015;28;20029;-66
2021/06/03 03:15:18;;;;;;;250.00;175.80;;;13.90;67.30;;;;;;5018020;28;20030;-66
2021/06/03 03:17:45;;;;;;;9.32;6.20;;;14.00;67.40;;;;;;5017535;28;20033;-67
2021/06/03 03:20:12;;;;;;;18.60;11.65;;;14.00;67.10;;;;;;5004767;28;20634;-65
2021/06/03 03:22:38;;;;;;;21.98;15.32;;;14.00;67.30;;;;;;5019534;28;20064;-67
2021/06/03 03:25:07;;;;;;;16.48;8.60;;;14.00;66.90;;;;;;5018373;28;20032;-67
2021/06/03 03:27:32;;;;;;;8.40;5.80;;;14.10;67.00;;;;;;5017644;28;20030;-68
2021/06/03 03:30:01;;;;;;;17.13;8.35;;;14.20;66.30;;;;;;5019172;28;20153;-68
2021/06/03 03:32:26;;;;;;;17.95;10.20;;;14.60;65.30;;;;;;5021128;28;20018;-67
2021/06/03 03:34:52;;;;;;;14.18;8.38;;;15.30;62.80;;;;;;5020236;28;20141;-68
2021/06/03 03:37:18;;;;;;;6.85;5.03;;;16.10;60.30;;;;;;5020053;28;20026;-67
2021/06/03 03:39:43;;;;;;;18.52;9.70;;;16.80;57.30;;;;;;5019201;28;20057;-67
2021/06/03 03:42:09;;;;;;;7.65;4.10;;;17.40;55.60;;;;;;5005526;28;20029;-66
2021/06/03 03:44:35;;;;;;;18.65;9.43;;;18.00;53.10;;;;;;5003714;28;20022;-68
2021/06/03 03:47:01;;;;;;;9.32;4.15;;;18.50;52.20;;;;;;5014160;28;20022;-68
2021/06/03 03:49:27;;;;;;;9.38;5.00;;;19.20;49.40;;;;;;5010664;28;20025;-68
2021/06/03 03:51:52;;;;;;;8.32;5.53;;;19.40;49.40;;;;;;5018254;28;20328;-68
2021/06/03 03:54:18;;;;;;;6.78;4.55;;;19.60;48.30;;;;;;5008604;28;20030;-68
2021/06/03 03:56:44;;;;;;;4.63;3.85;;;19.90;47.60;;;;;;5016420;28;20554;-68
2021/06/03 03:59:10;;;;;;;5.88;4.00;;;20.40;46.30;;;;;;5014858;28;20046;-68
2021/06/03 04:01:38;;;;;;;5.47;4.05;;;20.50;45.80;;;;;;5015181;28;20029;-68
2021/06/03 04:04:04;;;;;;;4.50;3.80;;;20.80;44.80;;;;;;4998755;28;20026;-68
2021/06/03 04:06:29;;;;;;;8.43;3.85;;;21.10;44.00;;;;;;5013647;28;20018;-68
2021/06/03 04:08:58;;;;;;;6.45;3.70;;;21.30;43.80;;;;;;5017188;28;20026;-68
2021/06/03 04:11:24;;;;;;;7.22;3.70;;;22.10;42.00;;;;;;5018095;28;20037;-67
2021/06/03 04:13:51;;;;;;;8.52;3.40;;;22.50;40.40;;;;;;4998397;28;20033;-68
2021/06/03 04:16:17;;;;;;;4.70;3.80;;;22.70;40.40;;;;;;5013490;28;20029;-68
2021/06/03 04:18:45;;;;;;;5.60;3.67;;;23.10;39.60;;;;;;5007833;28;20026;-68
2021/06/03 04:21:11;;;;;;;5.40;3.47;;;23.40;38.80;;;;;;5002958;28;20026;-68
2021/06/03 04:23:37;;;;;;;4.90;3.28;;;23.70;38.20;;;;;;5013985;28;20476;-67
2021/06/03 04:26:02;;;;;;;7.40;3.35;;;23.70;38.40;;;;;;5014603;28;20467;-66
2021/06/03 04:28:28;;;;;;;7.00;3.90;;;23.80;37.50;;;;;;5014805;28;20033;-67
2021/06/03 04:30:54;;;;;;;5.15;3.33;;;23.60;37.70;;;;;;5014653;28;20026;-67
2021/06/03 04:33:22;;;;;;;6.85;3.45;;;23.40;38.40;;;;;;5016064;28;20026;-68
2021/06/03 04:35:49;;;;;;;7.38;3.35;;;23.70;38.10;;;;;;5014458;28;20033;-67
2021/06/03 04:38:15;;;;;;;6.40;3.85;;;24.10;37.40;;;;;;4996956;28;20026;-66
2021/06/03 04:40:41;;;;;;;8.45;3.22;;;24.40;36.60;;;;;;5013881;28;20033;-67
2021/06/03 04:43:07;;;;;;;5.68;3.35;;;24.40;37.10;;;;;;5014563;28;20030;-66
2021/06/03 04:45:36;;;;;;;8.73;3.72;;;24.50;36.40;;;;;;5017353;28;20025;-67
2021/06/03 04:48:06;;;;;;;8.70;3.47;;;24.30;36.70;;;;;;4994072;28;20116;-67
2021/06/03 04:50:33;;;;;;;5.10;3.22;;;24.20;37.50;;;;;;5007155;28;20528;-68
2021/06/03 04:52:59;;;;;;;4.93;3.55;;;24.40;37.20;;;;;;5015550;28;20025;-68
2021/06/03 04:55:25;;;;;;;7.45;3.30;;;25.00;36.40;;;;;;5015552;28;20022;-67
2021/06/03 04:57:53;;;;;;;5.13;3.22;;;25.50;34.90;;;;;;4998226;28;20038;-68
2021/06/03 05:00:22;;;;;;;8.18;3.65;;;26.00;34.20;;;;;;5016012;28;20036;-67
2021/06/03 05:02:48;;;;;;;4.15;3.38;;;26.40;33.90;;;;;;5000908;28;20030;-67
2021/06/03 05:05:14;;;;;;;8.80;3.38;;;26.30;33.60;;;;;;5000343;28;20506;-67
2021/06/03 05:07:44;;;;;;;8.82;3.17;;;27.00;33.10;;;;;;5016153;28;20076;-67
2021/06/03 05:10:10;;;;;;;4.95;3.50;;;27.40;32.40;;;;;;5016008;28;20234;-66
2021/06/03 05:12:37;;;;;;;7.82;3.60;;;27.30;32.70;;;;;;5015293;28;20121;-67
2021/06/03 05:15:05;;;;;;;10.85;3.40;;;27.40;32.30;;;;;;5015248;28;20400;-67
2021/06/03 05:17:31;;;;;;;7.05;3.47;;;28.10;31.80;;;;;;5015578;28;20064;-67
2021/06/03 05:19:57;;;;;;;6.28;3.17;;;28.30;30.80;;;;;;5000601;28;20022;-67
2021/06/03 05:22:22;;;;;;;7.25;3.33;;;28.10;31.50;;;;;;4994881;28;20030;-68
2021/06/03 05:24:48;;;;;;;9.90;3.92;;;28.00;31.30;;;;;;5012526;28;20062;-67
2021/06/03 05:27:14;;;;;;;14.68;4.35;;;28.50;31.00;;;;;;5013838;28;20392;-67
2021/06/03 05:29:39;;;;;;;6.47;3.30;;;28.20;31.10;;;;;;5012282;28;20033;-67
2021/06/03 05:32:05;;;;;;;4.15;3.20;;;28.20;30.90;;;;;;4995904;28;20026;-68
2021/06/03 05:34:31;;;;;;;6.13;3.55;;;28.20;30.80;;;;;;4976386;28;20045;-68
2021/06/03 05:36:59;;;;;;;5.97;2.95;;;27.80;30.90;;;;;;4998800;28;20392;-67
2021/06/03 05:39:25;;;;;;;5.68;3.35;;;28.00;31.40;;;;;;5006494;28;20031;-69
2021/06/03 05:41:51;;;;;;;3.92;2.95;;;28.20;31.50;;;;;;5011445;28;20083;-68
2021/06/03 05:44:17;;;;;;;8.48;3.40;;;27.80;30.20;;;;;;5011385;28;20041;-68
2021/06/03 05:46:46;;;;;;;8.40;3.35;;;27.00;32.10;;;;;;5011862;28;20069;-68
2021/06/03 05:49:12;;;;;;;5.63;3.10;;;26.50;33.30;;;;;;5013686;28;20470;-68
2021/06/03 05:51:41;;;;;;;4.88;2.80;;;27.60;31.70;;;;;;5011053;28;20046;-67
2021/06/03 05:54:08;;;;;;;9.48;4.13;;;27.80;31.10;;;;;;5004942;28;20030;-66
2021/06/03 05:56:34;;;;;;;5.55;3.30;;;26.20;32.80;;;;;;5014599;28;20081;-68
2021/06/03 05:59:00;;;;;;;9.15;4.32;;;26.00;33.60;;;;;;5015581;28;20030;-67
2021/06/03 06:01:28;;;;;;;8.43;3.50;;;25.60;34.00;;;;;;5013908;28;20030;-68
2021/06/03 06:06:32;;;;;;;5.15;3.15;;;25.50;34.70;;;;;;5014186;28;20029;-70
2021/06/03 06:09:00;;;;;;;5.70;3.22;;;26.00;34.10;;;;;;5016867;28;20034;-71
2021/06/03 06:11:33;;;;;;;7.55;3.13;;;26.50;33.00;;;;;;5016412;28;20472;-71
2021/06/03 06:14:00;;;;;;;5.55;3.35;;;26.10;34.10;;;;;;5015392;28;20026;-70
2021/06/03 06:16:26;;;;;;;9.13;3.50;;;26.00;34.30;;;;;;5014221;28;20030;-71
2021/06/03 06:18:52;;;;;;;5.50;3.40;;;26.10;33.90;;;;;;5010453;28;20049;-71
2021/06/03 06:21:20;;;;;;;8.13;3.60;;;26.50;34.30;;;;;;5011742;28;20040;-70
2021/06/03 06:23:47;;;;;;;10.93;3.38;;;27.00;33.10;;;;;;5016626;28;20080;-71
2021/06/03 06:26:14;;;;;;;6.70;3.25;;;27.20;32.20;;;;;;5016277;28;20097;-71
2021/06/03 06:28:40;;;;;;;7.03;3.20;;;27.00;33.10;;;;;;5015494;28;20516;-70
2021/06/03 06:31:06;;;;;;;8.13;3.08;;;26.50;34.00;;;;;;5014769;28;20080;-69
2021/06/03 06:33:34;;;;;;;6.50;3.30;;;27.70;32.40;;;;;;5013867;28;20022;-70
2021/06/03 06:36:00;;;;;;;10.70;3.30;;;28.70;30.50;;;;;;5016104;28;20044;-70
2021/06/03 06:38:26;;;;;;;6.82;3.28;;;29.10;29.60;;;;;;5015886;28;20025;-70
2021/06/03 06:40:52;;;;;;;7.10;3.25;;;28.90;30.10;;;;;;5015882;28;20027;-70
2021/06/03 06:43:18;;;;;;;8.73;3.80;;;28.50;31.50;;;;;;5016513;28;20093;-71
2021/06/03 06:45:46;;;;;;;6.65;3.58;;;30.00;29.40;;;;;;5015355;28;20148;-71
2021/06/03 06:48:15;;;;;;;13.48;3.30;;;31.00;28.20;;;;;;5013194;28;20033;-69
2021/06/03 06:50:42;;;;;;;10.27;3.00;;;32.60;26.70;;;;;;5013832;28;20033;-70
2021/06/03 06:53:08;;;;;;;8.07;3.85;;;33.60;24.80;;;;;;5014093;28;20018;-71
2021/06/03 06:55:34;;;;;;;6.60;3.08;;;32.10;25.60;;;;;;5013438;28;20396;-71
2021/06/03 06:58:00;;;;;;;7.65;2.90;;;31.60;26.70;;;;;;5011954;28;20064;-71
2021/06/03 07:00:33;;;;;;;11.40;3.88;;;32.70;25.90;;;;;;5013343;28;20025;-71
2021/06/03 07:02:58;;;;;;;9.10;3.28;;;32.40;25.10;;;;;;5009556;28;20037;-69
2021/06/03 07:05:28;;;;;;;29.75;23.92;;;31.80;26.20;;;;;;5012045;28;20010;-68
2021/06/03 07:07:54;;;;;;;21.73;14.35;;;31.20;28.00;;;;;;5010630;28;20183;-67
2021/06/03 07:10:22;;;;;;;35.80;22.45;;;30.90;27.90;;;;;;4993742;28;20029;-68
2021/06/03 07:12:49;;;;;;;18.10;8.73;;;30.40;28.60;;;;;;4994978;28;20022;-67
2021/06/03 07:15:16;;;;;;;13.30;8.20;;;30.30;28.70;;;;;;5011012;28;20029;-66
2021/06/03 07:17:42;;;;;;;17.92;10.75;;;30.40;29.70;;;;;;5010633;28;20489;-67
2021/06/03 07:20:11;;;;;;;10.50;3.30;;;31.70;27.80;;;;;;5013828;28;20065;-67
2021/06/03 07:22:38;;;;;;;7.88;3.28;;;31.40;27.00;;;;;;5012760;28;20042;-66
2021/06/03 07:25:06;;;;;;;11.77;4.97;;;30.80;28.00;;;;;;5011925;28;20030;-67
2021/06/03 07:27:32;;;;;;;16.13;7.05;;;31.10;27.70;;;;;;5010544;28;20022;-67
2021/06/03 07:30:00;;;;;;;4.90;3.00;;;30.50;28.70;;;;;;5010914;28;20080;-68
2021/06/03 07:32:26;;;;;;;10.30;5.25;;;31.50;27.30;;;;;;5007219;28;20037;-68
2021/06/03 07:34:52;;;;;;;16.27;8.45;;;31.90;27.50;;;;;;5002226;28;20057;-68
2021/06/03 07:37:18;;;;;;;5.22;3.20;;;32.90;27.30;;;;;;5008207;28;20030;-68
2021/06/03 07:39:46;;;;;;;12.05;4.47;;;34.50;24.60;;;;;;5007438;28;20026;-67
2021/06/03 07:42:14;;;;;;;10.73;6.55;;;35.20;23.90;;;;;;5011526;28;20028;-67
2021/06/03 07:44:41;;;;;;;7.97;4.97;;;34.20;24.10;;;;;;5010661;28;20583;-68
2021/06/03 07:47:07;;;;;;;10.23;6.45;;;33.60;25.60;;;;;;5012078;28;20141;-66
2021/06/03 07:49:33;;;;;;;9.73;6.10;;;33.10;25.40;;;;;;5013297;28;20014;-67
2021/06/03 07:52:02;;;;;;;6.70;4.53;;;32.40;26.60;;;;;;5015281;28;20033;-66
2021/06/03 07:54:29;;;;;;;8.00;3.72;;;32.50;26.40;;;;;;5014616;28;20020;-67
2021/06/03 07:56:58;;;;;;;15.75;8.07;;;33.30;25.50;;;;;;5011714;28;20096;-68
2021/06/03 07:59:24;;;;;;;7.75;3.72;;;33.90;25.50;;;;;;5010790;28;20070;-67
2021/06/03 08:01:53;;;;;;;5.20;3.15;;;35.40;23.20;;;;;;5011013;28;20106;-67
2021/06/03 08:04:20;;;;;;;7.18;3.30;;;35.10;22.70;;;;;;5012977;28;20053;-67
2021/06/03 08:06:46;;;;;;;201.70;166.63;;;34.30;23.50;;;;;;5011886;28;20029;-68
2021/06/03 08:09:12;;;;;;;6.03;3.13;;;35.20;23.80;;;;;;5015490;28;20192;-66
2021/06/03 08:11:38;;;;;;;6.78;3.38;;;35.80;22.50;;;;;;5006325;28;20014;-66
2021/06/03 08:14:03;;;;;;;11.82;4.18;;;34.10;23.70;;;;;;5008673;28;20026;-67
2021/06/03 08:16:29;;;;;;;33.13;16.48;;;33.60;24.30;;;;;;5012271;28;20019;-67
2021/06/03 08:18:56;;;;;;;8.93;5.30;;;33.20;25.40;;;;;;5013614;28;20018;-67
2021/06/03 08:21:22;;;;;;;13.38;8.13;;;34.50;23.70;;;;;;5011091;28;20373;-67
2021/06/03 08:23:48;;;;;;;7.35;3.83;;;35.10;23.90;;;;;;5012475;28;20463;-67
2021/06/03 08:26:13;;;;;;;7.93;3.03;;;35.30;22.30;;;;;;5013437;28;20069;-67
2021/06/03 08:28:39;;;;;;;12.45;4.97;;;34.80;23.20;;;;;;5010972;28;20057;-67
2021/06/03 08:31:04;;;;;;;11.15;4.50;;;35.10;22.70;;;;;;5014264;28;20026;-67
2021/06/03 08:33:30;;;;;;;5.25;3.00;;;34.10;24.20;;;;;;5013511;28;20022;-68
2021/06/03 08:35:56;;;;;;;5.75;3.00;;;34.70;22.80;;;;;;5014216;28;20026;-67
2021/06/03 08:38:23;;;;;;;5.05;2.72;;;34.30;23.40;;;;;;5012697;28;20030;-67
2021/06/03 08:40:56;;;;;;;6.22;2.53;;;33.70;24.10;;;;;;5001285;28;20018;-67
2021/06/03 08:43:26;;;;;;;8.85;3.88;;;34.50;22.60;;;;;;5014174;28;20028;-67
2021/06/03 08:45:52;;;;;;;9.93;2.58;;;35.70;21.70;;;;;;5013276;28;20159;-68
2021/06/03 08:48:18;;;;;;;23.27;4.43;;;32.80;24.30;;;;;;5008712;28;20160;-67
2021/06/03 08:50:53;;;;;;;15.95;7.70;;;31.90;26.50;;;;;;5010481;28;20165;-67
2021/06/03 08:53:19;;;;;;;3.03;2.17;;;33.40;25.40;;;;;;5010696;28;20124;-67
2021/06/03 08:58:31;;;;;;;8.48;3.00;;;32.90;22.00;;;;;;5028579;22;20032;-69
2021/06/03 09:00:58;;;;;;;3.95;2.75;;;33.40;22.80;;;;;;5018867;28;20025;-70
2021/06/03 09:03:26;;;;;;;5.82;3.70;;;34.20;22.00;;;;;;5010284;28;20018;-70
2021/06/03 09:05:52;;;;;;;3.45;2.70;;;35.20;22.60;;;;;;5022308;28;20018;-67
2021/06/03 09:08:23;;;;;;;4.82;2.95;;;36.80;21.00;;;;;;5029387;28;20044;-67
2021/06/03 09:10:57;;;;;;;4.13;3.13;;;37.90;20.00;;;;;;4994861;28;20021;-68
2021/06/03 09:13:29;;;;;;;7.90;2.40;;;38.60;18.70;;;;;;5012549;28;20062;-69
2021/06/03 09:15:58;;;;;;;3.97;2.42;;;37.50;18.40;;;;;;5007891;28;20022;-68
2021/06/03 09:18:36;;;;;;;3.53;2.53;;;36.30;18.90;;;;;;5011529;28;20053;-67
2021/06/03 09:21:14;;;;;;;5.82;2.85;;;34.00;20.90;;;;;;5012260;28;20045;-67
2021/06/03 09:23:42;;;;;;;4.60;2.70;;;32.40;23.20;;;;;;5005550;28;20117;-68
2021/06/03 09:26:11;;;;;;;3.80;2.42;;;32.00;23.40;;;;;;4994093;28;20021;-68
2021/06/03 09:28:41;;;;;;;8.52;3.53;;;32.60;23.00;;;;;;4978552;28;20025;-67
2021/06/03 09:31:14;;;;;;;59.28;41.28;;;33.90;21.90;;;;;;5012189;28;20476;-67
2021/06/03 09:33:50;;;;;;;7.47;4.22;;;34.80;21.40;;;;;;5006693;28;20071;-67
2021/06/03 09:36:33;;;;;;;13.57;11.45;;;35.60;20.70;;;;;;5011322;28;20029;-69
2021/06/03 09:39:05;;;;;;;15.30;11.38;;;36.10;20.70;;;;;;4986675;28;20561;-68
2021/06/03 09:41:31;;;;;;;11.15;8.93;;;35.90;20.00;;;;;;5010233;28;20475;-69
2021/06/03 09:44:02;;;;;;;9.32;4.88;;;36.10;20.80;;;;;;4993601;28;20022;-69
2021/06/03 09:46:34;;;;;;;11.13;9.40;;;36.80;19.90;;;;;;5006855;28;20026;-68
2021/06/03 09:49:00;;;;;;;3.70;3.00;;;36.50;20.60;;;;;;4998406;28;20014;-70
2021/06/03 09:51:28;;;;;;;8.50;5.82;;;36.50;19.80;;;;;;5011372;28;20021;-69
2021/06/03 09:53:58;;;;;;;17.20;15.02;;;36.90;20.00;;;;;;5011673;28;20529;-68
2021/06/03 09:56:36;;;;;;;12.88;10.13;;;36.90;20.00;;;;;;5010677;28;20185;-69
2021/06/03 09:59:05;;;;;;;10.10;2.85;;;36.80;19.80;;;;;;5006192;28;20436;-68
2021/06/03 10:01:48;;;;;;;53.50;43.70;;;35.40;19.70;;;;;;4994232;28;20022;-69
2021/06/03 10:04:18;;;;;;;14.55;8.55;;;34.50;21.10;;;;;;5010758;28;20029;-68
2021/06/03 10:06:57;;;;;;;21.75;19.40;;;33.60;21.60;;;;;;5006175;28;20488;-69
2021/06/03 10:09:42;;;;;;;38.00;30.38;;;33.80;22.70;;;;;;5010762;28;20018;-67
2021/06/03 10:12:12;;;;;;;3.45;2.30;;;33.80;21.50;;;;;;5011358;28;20022;-69
2021/06/03 10:14:39;;;;;;;11.23;7.47;;;31.90;23.20;;;;;;5011499;28;20017;-69
2021/06/03 10:17:14;;;;;;;4.80;2.50;;;31.20;23.50;;;;;;5004949;28;20084;-69
2021/06/03 10:19:40;;;;;;;7.70;3.22;;;29.40;25.20;;;;;;5011194;28;20436;-69
2021/06/03 10:22:10;;;;;;;2.88;2.40;;;29.20;26.20;;;;;;4993485;28;20059;-67
2021/06/03 10:24:48;;;;;;;5.97;2.38;;;28.70;26.10;;;;;;5002676;28;20075;-68
2021/06/03 10:27:15;;;;;;;7.03;2.58;;;28.40;27.80;;;;;;5008491;28;20049;-68
2021/06/03 10:29:41;;;;;;;8.02;2.45;;;28.60;27.50;;;;;;5008375;28;20022;-69
2021/06/03 10:32:07;;;;;;;8.38;5.20;;;28.50;27.90;;;;;;5011310;28;20014;-68
2021/06/03 10:34:33;;;;;;;6.85;2.85;;;28.40;29.00;;;;;;4994518;28;20500;-69
2021/06/03 10:37:00;;;;;;;8.60;4.53;;;28.70;29.90;;;;;;5005440;28;20029;-69
2021/06/03 10:39:27;;;;;;;3.47;2.50;;;28.50;28.70;;;;;;4999993;28;20049;-68
2021/06/03 10:41:53;;;;;;;4.47;2.40;;;28.10;27.80;;;;;;4998787;28;20018;-68
2021/06/03 10:44:22;;;;;;;4.78;3.33;;;27.80;28.80;;;;;;4983522;28;20072;-68
2021/06/03 10:46:48;;;;;;;4.78;2.67;;;27.60;29.80;;;;;;4997537;28;20419;-69
2021/06/03 10:49:16;;;;;;;7.65;2.67;;;27.50;28.30;;;;;;4972647;28;20026;-67
2021/06/03 10:51:43;;;;;;;4.50;3.20;;;27.00;29.80;;;;;;5000589;28;20490;-69
2021/06/03 10:54:08;;;;;;;9.10;2.67;;;27.00;30.10;;;;;;5007459;28;20025;-68
2021/06/03 10:56:34;;;;;;;5.90;2.47;;;26.80;29.80;;;;;;5010573;28;20017;-68
2021/06/03 10:59:04;;;;;;;5.40;2.65;;;26.90;30.60;;;;;;5006311;28;20026;-68
2021/06/03 11:01:34;;;;;;;6.53;2.53;;;27.30;30.50;;;;;;5011066;28;20103;-68
2021/06/03 11:04:05;;;;;;;4.82;2.55;;;27.60;30.60;;;;;;5006491;28;20030;-68
2021/06/03 11:06:42;;;;;;;9.73;3.00;;;27.50;29.70;;;;;;5010835;28;20088;-67
2021/06/03 11:09:08;;;;;;;3.38;2.42;;;27.20;30.20;;;;;;5011073;28;20018;-67
2021/06/03 11:11:38;;;;;;;9.52;2.72;;;27.00;29.60;;;;;;5011194;28;20101;-68
2021/06/03 11:14:15;;;;;;;4.93;2.60;;;26.60;30.30;;;;;;4993143;28;20014;-69
2021/06/03 11:16:40;;;;;;;6.55;2.42;;;26.70;30.50;;;;;;5010556;28;20097;-68
2021/06/03 11:19:14;;;;;;;4.88;2.97;;;26.90;30.00;;;;;;4992657;28;20129;-67
2021/06/03 11:21:43;;;;;;;2.25;2.05;;;26.80;31.10;;;;;;5011163;28;20057;-68
2021/06/03 11:24:35;;;;;;;2.80;2.30;;;26.90;29.70;;;;;;5006111;28;20057;-68
2021/06/03 11:27:06;;;;;;;5.10;2.30;;;26.80;29.80;;;;;;5010534;28;20059;-68
2021/06/03 11:29:36;;;;;;;3.70;2.50;;;26.50;29.80;;;;;;5013297;28;20029;-67
2021/06/03 11:32:04;;;;;;;3.58;2.25;;;26.60;29.90;;;;;;5010370;28;20057;-68
2021/06/03 11:34:39;;;;;;;6.05;2.28;;;26.40;29.90;;;;;;5001832;28;20022;-69
2021/06/03 11:37:12;;;;;;;5.85;2.60;;;26.40;31.10;;;;;;5011331;28;20022;-68
2021/06/03 11:39:52;;;;;;;5.97;3.00;;;26.10;30.30;;;;;;5008500;28;20049;-66
2021/06/03 11:42:25;;;;;;;10.23;2.80;;;26.00;31.10;;;;;;4977207;28;20125;-69
2021/06/03 11:45:19;;;;;;;5.57;2.65;;;26.00;31.50;;;;;;4977707;28;20049;-68
2021/06/03 11:47:44;;;;;;;3.92;2.97;;;26.20;30.80;;;;;;4994192;28;20034;-68
2021/06/03 11:50:15;;;;;;;7.22;3.15;;;26.20;31.20;;;;;;4995079;28;20018;-68
2021/06/03 11:52:53;;;;;;;7.05;2.90;;;26.50;31.50;;;;;;5012985;28;20018;-69
2021/06/03 11:55:35;;;;;;;5.38;2.55;;;26.90;31.70;;;;;;5014223;28;20026;-69
2021/06/03 11:58:10;;;;;;;4.78;2.47;;;27.30;31.20;;;;;;5013680;28;20022;-68
2021/06/03 12:00:41;;;;;;;3.60;2.65;;;27.80;30.40;;;;;;5014379;28;20037;-69
2021/06/03 12:03:38;;;;;;;5.50;2.50;;;27.90;30.40;;;;;;5009554;28;20025;-68
2021/06/03 12:06:13;;;;;;;7.30;2.42;;;27.80;29.50;;;;;;4994281;28;20022;-69
2021/06/03 12:08:48;;;;;;;4.93;2.78;;;28.00;29.80;;;;;;5001426;28;20026;-69
2021/06/03 12:11:36;;;;;;;6.22;2.65;;;28.40;30.10;;;;;;5014389;28;20526;-69
2021/06/03 12:14:03;;;;;;;2.60;2.10;;;28.90;29.50;;;;;;5014126;28;20029;-68
2021/06/03 12:16:42;;;;;;;2.67;2.47;;;29.00;29.30;;;;;;5013127;28;20049;-68
2021/06/03 12:19:12;;;;;;;3.38;2.63;;;29.20;29.00;;;;;;5013782;28;20017;-66
2021/06/03 12:21:41;;;;;;;4.00;2.80;;;29.50;28.70;;;;;;4987248;28;20479;-68
2021/06/03 12:24:07;;;;;;;4.60;2.50;;;29.80;28.30;;;;;;5014007;28;20343;-68
2021/06/03 12:26:37;;;;;;;5.13;2.60;;;29.80;26.90;;;;;;5013304;28;20037;-68
2021/06/03 12:29:03;;;;;;;4.10;2.80;;;28.60;28.60;;;;;;5010997;28;20033;-67
2021/06/03 12:31:29;;;;;;;9.95;2.90;;;28.60;28.60;;;;;;5008149;28;20033;-67
2021/06/03 12:33:57;;;;;;;8.82;2.65;;;28.90;29.40;;;;;;4994524;28;20014;-67
2021/06/03 12:36:25;;;;;;;3.25;2.60;;;29.00;29.70;;;;;;4993158;28;20101;-68
2021/06/03 12:38:56;;;;;;;5.65;2.60;;;29.10;29.00;;;;;;4993791;28;20120;-69
2021/06/03 12:41:30;;;;;;;8.20;2.95;;;29.20;29.10;;;;;;4993844;28;20366;-68
2021/06/03 12:44:10;;;;;;;6.95;2.50;;;29.00;29.20;;;;;;5003415;28;20022;-68
2021/06/03 12:46:52;;;;;;;4.30;2.63;;;29.00;29.70;;;;;;4993075;28;20034;-68
2021/06/03 12:49:25;;;;;;;4.78;2.95;;;28.90;29.50;;;;;;4998710;28;20452;-69
2021/06/03 12:52:00;;;;;;;8.02;2.58;;;29.00;29.60;;;;;;4995283;28;20488;-69
2021/06/03 12:54:46;;;;;;;9.40;2.85;;;29.00;28.90;;;;;;5009046;28;20030;-68
2021/06/03 12:57:14;;;;;;;10.70;2.78;;;28.90;29.40;;;;;;5003567;28;20028;-69